Time;durP1;ratioP1;P1;durP2;ratioP2;P2;SDS_P1;SDS_P2;PMS_P1;PMS_P2;Temp;Humidity;BMP_temperature;BMP_pressure;BME280_temperature;BME280_humidity;BME280_pressure;Samples;Min_cycle;Max_cycle;Signal;HPM_P1;HPM_P2
2022/04/06 00:00:06;;;;;;;3.40;3.15;;;9.30;99.90;;;;;;4999003;28;20205;-78
2022/04/06 00:02:32;;;;;;;3.60;3.30;;;9.30;99.90;;;;;;5001980;28;20205;-78
2022/04/06 00:04:57;;;;;;;3.20;3.00;;;9.20;99.90;;;;;;5021195;28;20177;-78
2022/04/06 00:07:23;;;;;;;3.47;3.28;;;9.20;99.90;;;;;;5015701;28;20253;-78
2022/04/06 00:09:48;;;;;;;4.10;3.80;;;9.10;99.90;;;;;;5013735;28;20521;-77
2022/04/06 00:12:14;;;;;;;2.50;2.40;;;9.10;99.90;;;;;;4998412;28;20569;-78
2022/04/06 00:14:39;;;;;;;3.30;3.10;;;9.10;99.90;;;;;;5007092;28;20186;-77
2022/04/06 00:17:07;;;;;;;3.30;3.10;;;9.20;99.90;;;;;;4996358;28;20198;-77
2022/04/06 00:19:35;;;;;;;3.50;3.30;;;9.10;99.90;;;;;;5010939;28;20208;-77
2022/04/06 00:22:01;;;;;;;3.55;3.28;;;9.10;99.90;;;;;;4996593;28;20197;-77
2022/04/06 00:24:27;;;;;;;3.22;3.03;;;9.20;99.90;;;;;;5013215;28;20547;-77
2022/04/06 00:26:53;;;;;;;3.53;3.33;;;9.10;99.90;;;;;;5015107;28;20213;-77
2022/04/06 00:29:19;;;;;;;3.03;2.83;;;9.10;99.90;;;;;;5016119;28;20565;-77
2022/04/06 00:31:45;;;;;;;3.35;3.15;;;9.10;99.90;;;;;;5014398;28;20205;-76
2022/04/06 00:34:10;;;;;;;3.42;3.13;;;9.20;99.90;;;;;;5012835;28;20188;-76
2022/04/06 00:36:36;;;;;;;3.10;2.90;;;9.20;99.90;;;;;;5013620;28;20224;-76
2022/04/06 00:39:03;;;;;;;3.42;3.15;;;9.20;99.90;;;;;;5013529;28;20174;-77
2022/04/06 00:41:28;;;;;;;3.60;3.30;;;9.20;99.90;;;;;;5007476;28;20210;-77
2022/04/06 00:44:13;;;;;;;3.10;2.90;;;9.10;99.90;;;;;;5010795;28;20731;-77
2022/04/06 00:46:38;;;;;;;2.88;2.67;;;9.10;99.90;;;;;;5013229;28;20204;-77
2022/04/06 00:49:10;;;;;;;4.70;3.70;;;9.10;99.90;;;;;;5011204;28;20165;-77
2022/04/06 00:51:38;;;;;;;3.45;3.25;;;9.20;99.90;;;;;;4994095;28;20182;-77
2022/04/06 00:54:04;;;;;;;3.65;3.35;;;9.20;99.90;;;;;;5011395;28;20181;-77
2022/04/06 00:56:30;;;;;;;3.13;2.92;;;9.20;99.90;;;;;;5013258;28;20546;-77
2022/04/06 00:58:56;;;;;;;3.72;3.42;;;9.20;99.90;;;;;;5000476;28;20186;-77
2022/04/06 01:01:22;;;;;;;3.42;3.15;;;9.10;99.90;;;;;;4993928;28;20182;-77
2022/04/06 01:03:47;;;;;;;3.42;3.22;;;9.10;99.90;;;;;;5008985;28;20181;-77
2022/04/06 01:06:13;;;;;;;3.20;3.00;;;9.10;99.90;;;;;;5005972;28;20208;-77
2022/04/06 01:08:39;;;;;;;4.32;4.03;;;9.20;99.90;;;;;;5012311;28;20181;-77
2022/04/06 01:11:05;;;;;;;3.38;3.10;;;9.20;99.90;;;;;;5011920;28;20181;-77
2022/04/06 01:13:31;;;;;;;6.85;5.63;;;9.20;99.90;;;;;;5009833;28;20189;-78
2022/04/06 01:15:56;;;;;;;5.05;4.55;;;9.10;99.90;;;;;;4993077;28;20194;-78
2022/04/06 01:18:22;;;;;;;4.72;4.32;;;9.20;99.90;;;;;;5008689;28;20178;-78
2022/04/06 01:20:47;;;;;;;5.65;5.18;;;9.30;99.90;;;;;;4995055;28;20206;-77
2022/04/06 01:23:13;;;;;;;5.25;4.75;;;9.30;99.90;;;;;;5004535;28;20244;-77
2022/04/06 01:25:40;;;;;;;5.63;5.18;;;9.20;99.90;;;;;;5006421;28;20197;-79
2022/04/06 01:28:07;;;;;;;5.47;5.07;;;9.20;99.90;;;;;;5016574;28;20173;-77
2022/04/06 01:30:33;;;;;;;5.90;5.28;;;9.10;99.90;;;;;;5013169;28;20224;-77
2022/04/06 01:32:58;;;;;;;5.78;5.38;;;9.10;99.90;;;;;;5021803;28;20185;-75
2022/04/06 01:35:25;;;;;;;6.28;5.47;;;9.20;99.90;;;;;;5012238;28;20231;-75
2022/04/06 01:37:50;;;;;;;7.03;5.78;;;9.20;99.90;;;;;;5019572;28;20631;-75
2022/04/06 01:40:16;;;;;;;6.03;5.57;;;9.30;99.90;;;;;;5012519;28;20272;-75
2022/04/06 01:42:42;;;;;;;6.15;5.63;;;9.20;99.90;;;;;;5012163;28;20176;-75
2022/04/06 01:45:08;;;;;;;6.32;5.60;;;9.20;99.90;;;;;;5012373;28;20181;-75
2022/04/06 01:47:34;;;;;;;5.90;5.40;;;9.20;99.90;;;;;;5012550;28;20810;-75
2022/04/06 01:52:44;;;;;;;5.32;4.68;;;9.30;99.90;;;;;;5009192;28;20184;-77
2022/04/06 01:55:12;;;;;;;4.72;3.78;;;9.20;99.90;;;;;;5010638;28;20612;-76
2022/04/06 01:57:39;;;;;;;5.70;5.20;;;9.30;99.90;;;;;;4996783;28;21296;-77
2022/04/06 02:00:09;;;;;;;4.60;4.30;;;9.30;99.90;;;;;;5012334;28;20185;-75
2022/04/06 02:02:36;;;;;;;5.18;4.70;;;9.30;99.90;;;;;;5008753;28;20232;-74
2022/04/06 02:05:02;;;;;;;4.75;4.45;;;9.30;99.90;;;;;;5012047;28;20180;-75
2022/04/06 02:07:28;;;;;;;4.45;3.90;;;9.30;99.90;;;;;;5009097;28;20268;-76
2022/04/06 02:09:53;;;;;;;4.40;4.10;;;9.30;99.90;;;;;;5009927;28;20260;-75
2022/04/06 02:12:21;;;;;;;5.07;4.57;;;9.30;99.90;;;;;;5011721;28;20534;-75
2022/04/06 02:14:46;;;;;;;4.85;4.43;;;9.30;99.90;;;;;;5010648;28;20268;-75
2022/04/06 02:17:12;;;;;;;5.20;4.80;;;9.30;99.90;;;;;;5011657;28;20731;-75
2022/04/06 02:19:39;;;;;;;6.22;5.63;;;9.30;99.90;;;;;;5011813;28;20229;-75
2022/04/06 02:22:05;;;;;;;5.95;5.45;;;9.30;99.90;;;;;;5011465;28;20174;-75
2022/04/06 02:24:32;;;;;;;6.20;5.70;;;9.30;99.90;;;;;;5009951;28;20197;-75
2022/04/06 02:26:58;;;;;;;6.00;5.50;;;9.30;99.90;;;;;;5006800;28;20223;-75
2022/04/06 02:29:24;;;;;;;6.28;5.65;;;9.30;99.90;;;;;;5008794;28;20177;-75
2022/04/06 02:31:49;;;;;;;6.15;5.63;;;9.20;99.90;;;;;;5008942;28;20180;-76
2022/04/06 02:34:15;;;;;;;7.18;6.45;;;9.20;99.90;;;;;;5011111;28;21327;-75
2022/04/06 02:36:41;;;;;;;5.80;5.30;;;9.20;99.90;;;;;;5011317;28;20698;-75
2022/04/06 02:39:07;;;;;;;6.35;5.72;;;9.20;99.90;;;;;;5011639;28;20527;-75
2022/04/06 02:41:32;;;;;;;6.28;5.65;;;9.20;99.90;;;;;;5008913;28;20192;-75
2022/04/06 02:43:58;;;;;;;5.72;5.00;;;9.20;99.90;;;;;;5010269;28;20190;-75
2022/04/06 02:46:24;;;;;;;6.15;5.57;;;9.30;99.90;;;;;;5010950;28;20227;-75
2022/04/06 02:48:49;;;;;;;6.38;5.88;;;9.30;99.90;;;;;;5014079;28;20170;-75
2022/04/06 02:51:15;;;;;;;7.60;6.30;;;9.30;99.90;;;;;;5013101;28;20543;-76
2022/04/06 02:53:40;;;;;;;7.32;6.65;;;9.20;99.90;;;;;;5015170;28;20170;-76
2022/04/06 02:56:06;;;;;;;5.70;4.85;;;9.20;99.90;;;;;;5012183;28;20196;-76
2022/04/06 02:58:32;;;;;;;7.32;6.63;;;9.20;99.90;;;;;;5015043;28;20264;-76
2022/04/06 03:00:58;;;;;;;7.63;7.03;;;9.30;99.90;;;;;;5011906;28;20260;-76
2022/04/06 03:03:25;;;;;;;7.30;6.70;;;9.20;99.90;;;;;;5015251;28;20645;-76
2022/04/06 03:05:51;;;;;;;8.07;6.55;;;9.20;99.90;;;;;;5007951;28;20209;-74
2022/04/06 03:08:16;;;;;;;7.28;6.68;;;9.10;99.90;;;;;;5005395;28;20178;-74
2022/04/06 03:10:42;;;;;;;7.45;6.75;;;9.10;99.90;;;;;;5013368;28;20176;-74
2022/04/06 03:13:08;;;;;;;7.18;6.38;;;9.20;99.90;;;;;;5010542;28;20186;-75
2022/04/06 03:15:33;;;;;;;7.32;6.63;;;9.10;99.90;;;;;;4995506;28;20202;-75
2022/04/06 03:17:59;;;;;;;8.15;7.25;;;9.10;99.90;;;;;;4999629;28;20558;-75
2022/04/06 03:20:25;;;;;;;7.68;7.03;;;9.10;99.90;;;;;;5009271;28;20212;-76
2022/04/06 03:22:50;;;;;;;7.75;6.95;;;9.10;99.90;;;;;;5013825;28;20185;-76
2022/04/06 03:25:16;;;;;;;6.65;6.15;;;9.00;99.90;;;;;;5014560;28;20170;-76
2022/04/06 03:27:42;;;;;;;6.90;6.28;;;9.10;99.90;;;;;;5012582;28;20217;-76
2022/04/06 03:30:11;;;;;;;7.15;6.45;;;9.10;99.90;;;;;;5011851;28;20182;-75
2022/04/06 03:32:37;;;;;;;7.63;6.93;;;9.10;99.90;;;;;;5014314;28;20259;-75
2022/04/06 03:35:04;;;;;;;6.13;5.63;;;9.10;99.90;;;;;;5014419;28;20169;-74
2022/04/06 03:37:30;;;;;;;6.60;6.03;;;9.00;99.90;;;;;;5007614;28;20205;-75
2022/04/06 03:39:56;;;;;;;6.45;5.95;;;9.10;99.90;;;;;;5013371;28;20185;-75
2022/04/06 03:42:21;;;;;;;6.28;5.70;;;9.10;99.90;;;;;;5023553;28;20556;-75
2022/04/06 03:44:47;;;;;;;6.40;5.80;;;9.10;99.90;;;;;;5012379;28;20665;-75
2022/04/06 03:47:13;;;;;;;5.45;4.95;;;9.20;99.90;;;;;;5011770;28;20201;-75
2022/04/06 03:49:38;;;;;;;7.22;6.47;;;9.30;99.90;;;;;;5013783;28;20260;-75
2022/04/06 03:52:04;;;;;;;6.88;6.28;;;9.20;99.90;;;;;;5012816;28;20165;-75
2022/04/06 03:54:30;;;;;;;5.97;5.38;;;9.20;99.90;;;;;;5010553;28;20599;-75
2022/04/06 03:56:55;;;;;;;5.93;5.45;;;9.20;99.90;;;;;;5010828;28;20201;-75
2022/04/06 03:59:21;;;;;;;6.57;5.95;;;9.10;99.90;;;;;;5012929;28;20193;-75
2022/04/06 04:01:47;;;;;;;6.38;5.45;;;9.00;99.90;;;;;;5012772;28;20236;-75
2022/04/06 04:04:12;;;;;;;6.15;5.50;;;9.00;99.90;;;;;;5012446;28;20189;-75
2022/04/06 04:06:38;;;;;;;5.38;4.97;;;9.10;99.90;;;;;;5012772;28;20668;-75
2022/04/06 04:09:04;;;;;;;5.38;4.93;;;9.20;99.90;;;;;;5013009;28;20174;-75
2022/04/06 04:11:30;;;;;;;5.50;5.10;;;9.10;99.90;;;;;;5009719;28;20178;-75
2022/04/06 04:13:56;;;;;;;5.50;5.10;;;9.10;99.90;;;;;;5009109;28;20190;-75
2022/04/06 04:16:21;;;;;;;6.00;5.25;;;9.10;99.90;;;;;;5009632;28;20193;-75
2022/04/06 04:18:47;;;;;;;5.55;5.05;;;9.20;99.90;;;;;;5013620;28;20177;-75
2022/04/06 04:21:31;;;;;;;5.15;4.75;;;9.20;99.90;;;;;;5013730;28;20185;-75
2022/04/06 04:23:57;;;;;;;4.57;4.22;;;9.20;99.90;;;;;;5002570;28;20567;-75
2022/04/06 04:26:22;;;;;;;5.47;4.85;;;9.20;99.90;;;;;;5013223;28;20205;-76
2022/04/06 04:28:48;;;;;;;5.78;4.80;;;9.10;99.90;;;;;;5011529;28;20221;-75
2022/04/06 04:31:14;;;;;;;6.00;4.63;;;9.30;99.90;;;;;;5002403;28;20182;-74
2022/04/06 04:33:39;;;;;;;6.40;5.00;;;9.30;99.90;;;;;;5012409;28;20276;-75
2022/04/06 04:36:05;;;;;;;5.00;4.60;;;9.30;99.90;;;;;;5009925;28;20216;-75
2022/04/06 04:38:31;;;;;;;5.47;4.97;;;9.30;99.90;;;;;;5010905;28;20189;-74
2022/04/06 04:40:57;;;;;;;5.25;4.75;;;9.30;99.90;;;;;;5012817;28;20489;-75
2022/04/06 04:43:22;;;;;;;5.05;4.65;;;9.20;99.90;;;;;;5009906;28;20189;-74
2022/04/06 04:45:48;;;;;;;4.75;4.45;;;9.20;99.90;;;;;;5015125;28;20196;-74
2022/04/06 04:48:14;;;;;;;5.22;4.80;;;9.30;99.90;;;;;;5018950;28;20596;-75
2022/04/06 04:50:40;;;;;;;4.68;4.32;;;9.30;99.90;;;;;;5022953;28;20181;-75
2022/04/06 04:53:06;;;;;;;5.70;5.20;;;9.30;99.90;;;;;;5021994;28;20204;-75
2022/04/06 04:55:32;;;;;;;5.60;5.10;;;9.30;99.90;;;;;;5023952;28;20219;-75
2022/04/06 04:57:58;;;;;;;5.55;5.05;;;9.30;99.90;;;;;;5033145;28;20172;-75
2022/04/06 05:00:24;;;;;;;5.28;4.88;;;9.40;99.90;;;;;;5025788;28;20199;-75
2022/04/06 05:02:49;;;;;;;6.00;5.45;;;9.40;99.90;;;;;;5005345;28;20178;-76
2022/04/06 05:05:15;;;;;;;6.10;5.07;;;9.40;99.90;;;;;;4992736;28;20261;-76
2022/04/06 05:07:40;;;;;;;6.10;5.50;;;9.40;99.90;;;;;;5003570;28;20205;-76
2022/04/06 05:10:08;;;;;;;5.82;5.32;;;9.40;99.90;;;;;;4991992;28;20209;-76
2022/04/06 05:12:34;;;;;;;5.80;5.30;;;9.40;99.90;;;;;;4992529;28;20711;-74
2022/04/06 05:14:59;;;;;;;5.47;4.97;;;9.30;99.90;;;;;;4992808;28;20174;-75
2022/04/06 05:17:26;;;;;;;4.80;4.40;;;9.30;99.90;;;;;;5002120;28;20266;-75
2022/04/06 05:19:53;;;;;;;4.78;4.38;;;9.30;99.90;;;;;;5018898;28;20181;-74
2022/04/06 05:22:18;;;;;;;5.85;4.72;;;9.40;99.90;;;;;;5014626;28;20185;-76
2022/04/06 05:24:44;;;;;;;5.40;4.90;;;9.40;99.90;;;;;;5023503;28;20307;-75
2022/04/06 05:27:09;;;;;;;5.90;5.40;;;9.40;99.90;;;;;;5017675;28;20558;-75
2022/04/06 05:29:35;;;;;;;5.00;4.50;;;9.50;99.90;;;;;;5020515;28;20189;-75
2022/04/06 05:32:01;;;;;;;5.68;5.03;;;9.70;99.90;;;;;;5017244;28;20185;-75
2022/04/06 05:34:27;;;;;;;5.15;4.65;;;9.70;99.90;;;;;;5021984;28;20198;-75
2022/04/06 05:36:53;;;;;;;4.60;4.20;;;9.80;99.90;;;;;;5014627;28;20228;-75
2022/04/06 05:39:18;;;;;;;6.78;4.82;;;9.90;99.90;;;;;;5009506;28;20190;-76
2022/04/06 05:41:44;;;;;;;5.13;4.63;;;9.90;99.90;;;;;;5007992;28;20235;-76
2022/04/06 05:44:09;;;;;;;5.00;4.60;;;10.00;99.90;;;;;;5019092;28;20543;-76
2022/04/06 05:46:35;;;;;;;4.80;4.40;;;10.10;99.90;;;;;;5023353;28;20300;-77
2022/04/06 05:49:01;;;;;;;5.82;4.30;;;10.10;99.90;;;;;;5012779;28;20641;-77
2022/04/06 05:51:26;;;;;;;5.90;5.40;;;10.20;99.90;;;;;;5012014;28;20177;-76
2022/04/06 05:53:52;;;;;;;5.15;4.70;;;10.20;99.90;;;;;;4995831;28;20189;-75
2022/04/06 05:56:17;;;;;;;4.80;4.40;;;10.30;99.90;;;;;;4995740;28;20216;-74
2022/04/06 05:58:43;;;;;;;4.72;4.15;;;10.50;99.90;;;;;;5012882;28;20279;-75
2022/04/06 06:01:09;;;;;;;4.32;4.03;;;10.60;99.90;;;;;;5016304;28;20180;-74
2022/04/06 06:03:35;;;;;;;5.07;4.65;;;10.70;99.90;;;;;;5017225;28;20185;-75
2022/04/06 06:06:01;;;;;;;4.65;4.30;;;10.80;99.90;;;;;;5010710;28;20212;-75
2022/04/06 06:08:27;;;;;;;4.43;4.13;;;10.90;99.90;;;;;;4992617;28;20181;-76
2022/04/06 06:10:52;;;;;;;4.82;4.30;;;10.90;99.90;;;;;;5000892;28;20637;-76
2022/04/06 06:13:18;;;;;;;3.53;3.22;;;10.90;99.90;;;;;;5011153;28;20169;-75
2022/04/06 06:15:44;;;;;;;4.63;3.78;;;10.90;99.90;;;;;;4997012;28;20729;-75
2022/04/06 06:18:10;;;;;;;4.85;4.45;;;10.90;99.90;;;;;;4992641;28;20174;-74
2022/04/06 06:20:36;;;;;;;5.35;4.88;;;10.80;99.90;;;;;;5009401;28;20190;-72
2022/04/06 06:23:01;;;;;;;4.78;4.38;;;10.70;99.90;;;;;;5011663;28;20555;-74
2022/04/06 06:25:27;;;;;;;4.25;3.92;;;10.60;99.90;;;;;;5011684;28;20216;-74
2022/04/06 06:27:53;;;;;;;6.10;4.05;;;10.60;99.90;;;;;;5011754;28;20212;-74
2022/04/06 06:30:19;;;;;;;4.53;4.22;;;10.50;99.90;;;;;;5009640;28;20640;-74
2022/04/06 06:32:45;;;;;;;6.35;5.07;;;10.60;99.90;;;;;;5011982;28;20410;-74
2022/04/06 06:35:11;;;;;;;3.50;3.20;;;10.60;99.90;;;;;;5011111;28;20223;-73
2022/04/06 06:37:47;;;;;;;4.53;4.13;;;10.60;99.90;;;;;;5010469;28;20205;-71
2022/04/06 06:40:13;;;;;;;3.45;3.20;;;10.70;99.90;;;;;;5015803;28;20539;-70
2022/04/06 06:42:39;;;;;;;6.90;4.35;;;10.70;99.90;;;;;;5019580;28;20181;-71
2022/04/06 06:45:05;;;;;;;4.20;3.83;;;10.70;99.90;;;;;;5031075;28;20639;-71
2022/04/06 06:47:31;;;;;;;4.45;4.15;;;10.70;99.90;;;;;;5015126;28;20213;-71
2022/04/06 06:49:56;;;;;;;4.15;2.75;;;10.80;99.90;;;;;;5019235;28;20189;-70
2022/04/06 06:52:22;;;;;;;5.00;4.63;;;10.80;99.90;;;;;;5010754;28;20232;-72
2022/04/06 06:54:47;;;;;;;5.00;4.60;;;10.80;99.90;;;;;;5017852;28;20173;-71
2022/04/06 06:57:13;;;;;;;4.88;4.47;;;10.90;99.90;;;;;;5009048;28;20263;-72
2022/04/06 06:59:41;;;;;;;5.53;5.03;;;11.00;99.90;;;;;;5012593;28;20197;-72
2022/04/06 07:02:06;;;;;;;4.72;4.32;;;11.10;99.90;;;;;;5012297;28;20537;-72
2022/04/06 07:04:32;;;;;;;4.88;4.57;;;11.00;99.90;;;;;;5014753;28;20189;-72
2022/04/06 07:06:58;;;;;;;3.80;3.50;;;11.10;99.90;;;;;;5003912;28;20197;-73
2022/04/06 07:09:23;;;;;;;4.63;4.22;;;11.30;99.90;;;;;;4990567;28;20182;-73
2022/04/06 07:11:49;;;;;;;4.50;4.10;;;11.30;99.90;;;;;;5008385;28;20169;-71
2022/04/06 07:14:14;;;;;;;4.95;3.95;;;11.50;99.90;;;;;;5019883;28;20603;-73
2022/04/06 07:16:40;;;;;;;5.32;4.82;;;11.50;99.90;;;;;;5015550;28;20287;-77
2022/04/06 07:19:06;;;;;;;4.82;3.97;;;11.80;99.90;;;;;;5000714;28;20194;-75
2022/04/06 07:21:31;;;;;;;4.70;4.35;;;12.00;99.90;;;;;;4997731;28;20667;-72
2022/04/06 07:23:58;;;;;;;3.55;3.25;;;12.10;99.90;;;;;;5011069;28;20181;-73
2022/04/06 07:26:23;;;;;;;4.88;4.43;;;12.20;99.90;;;;;;5011089;28;20709;-72
2022/04/06 07:28:49;;;;;;;4.82;4.53;;;12.30;99.90;;;;;;5011319;28;20210;-71
2022/04/06 07:31:15;;;;;;;4.32;3.92;;;12.30;99.90;;;;;;5008984;28;20181;-71
2022/04/06 07:33:40;;;;;;;4.07;3.78;;;12.40;99.90;;;;;;5008863;28;20205;-71
2022/04/06 07:36:07;;;;;;;5.00;4.50;;;12.60;99.90;;;;;;5019038;28;20659;-71
2022/04/06 07:38:33;;;;;;;4.50;3.75;;;12.60;99.90;;;;;;5024678;28;20192;-71
2022/04/06 07:40:59;;;;;;;3.83;3.53;;;12.70;99.90;;;;;;5013581;28;20182;-70
2022/04/06 07:43:25;;;;;;;6.03;4.03;;;12.90;99.90;;;;;;5014689;28;20235;-70
2022/04/06 07:45:51;;;;;;;3.90;3.58;;;12.90;99.90;;;;;;5014443;28;20197;-74
2022/04/06 07:48:16;;;;;;;4.20;3.90;;;13.00;99.90;;;;;;5014551;28;20175;-71
2022/04/06 07:50:42;;;;;;;6.00;3.60;;;13.00;99.90;;;;;;5008175;28;20201;-71
2022/04/06 07:53:08;;;;;;;4.03;3.70;;;13.10;99.90;;;;;;5009210;28;20193;-72
2022/04/06 07:55:33;;;;;;;4.20;3.90;;;13.10;99.90;;;;;;5016933;28;20214;-72
2022/04/06 07:58:00;;;;;;;3.67;3.38;;;13.10;99.90;;;;;;5016408;28;20677;-72
2022/04/06 08:00:32;;;;;;;4.13;3.83;;;13.10;99.90;;;;;;5014047;28;20193;-72
2022/04/06 08:02:59;;;;;;;5.43;4.03;;;13.20;99.90;;;;;;5011593;28;20200;-74
2022/04/06 08:05:25;;;;;;;3.88;3.60;;;13.30;99.90;;;;;;5013977;28;20174;-78
2022/04/06 08:07:53;;;;;;;4.53;3.90;;;13.40;99.90;;;;;;5012536;28;20768;-79
2022/04/06 08:10:19;;;;;;;3.70;3.40;;;13.40;99.90;;;;;;5016001;28;20169;-74
2022/04/06 08:12:46;;;;;;;4.07;3.15;;;13.20;99.90;;;;;;5013879;28;20189;-78
2022/04/06 08:15:12;;;;;;;5.22;3.70;;;13.20;99.90;;;;;;5023093;28;20267;-76
2022/04/06 08:17:43;;;;;;;3.97;3.53;;;13.20;99.90;;;;;;5018440;28;20225;-78
2022/04/06 08:20:11;;;;;;;4.47;4.15;;;13.20;99.90;;;;;;5023323;28;20184;-73
2022/04/06 08:22:38;;;;;;;5.97;4.30;;;13.20;99.90;;;;;;5017716;28;20267;-77
2022/04/06 08:25:04;;;;;;;4.35;3.95;;;12.90;99.90;;;;;;5015456;28;20188;-77
2022/04/06 08:27:32;;;;;;;4.00;3.70;;;13.10;99.90;;;;;;5013331;28;20217;-77
2022/04/06 08:29:58;;;;;;;5.47;4.10;;;13.40;99.90;;;;;;5013608;28;20184;-77
2022/04/06 08:32:23;;;;;;;3.97;3.65;;;13.60;99.90;;;;;;5015923;28;20182;-76
2022/04/06 08:34:49;;;;;;;4.18;3.88;;;13.80;99.90;;;;;;5026745;28;20223;-73
2022/04/06 08:37:15;;;;;;;4.15;3.75;;;14.00;99.90;;;;;;5021785;28;20213;-75
2022/04/06 08:39:41;;;;;;;3.80;3.17;;;14.10;99.90;;;;;;5012162;28;20177;-75
2022/04/06 08:42:07;;;;;;;5.60;4.20;;;14.00;99.90;;;;;;5013292;28;20600;-74
2022/04/06 08:44:32;;;;;;;3.78;3.25;;;14.10;99.90;;;;;;5015238;28;20549;-74
2022/04/06 08:47:07;;;;;;;3.85;3.55;;;14.10;99.90;;;;;;5014817;28;20200;-79
2022/04/06 08:49:35;;;;;;;4.15;3.85;;;13.90;99.90;;;;;;5012967;28;20247;-76
2022/04/06 08:52:03;;;;;;;3.00;2.80;;;13.80;99.90;;;;;;5012789;28;20208;-75
2022/04/06 08:54:29;;;;;;;4.22;3.92;;;13.70;99.90;;;;;;5012844;28;20174;-76
2022/04/06 08:56:55;;;;;;;3.60;3.33;;;13.70;99.90;;;;;;5006882;28;20205;-76
2022/04/06 08:59:21;;;;;;;3.85;3.58;;;13.70;99.90;;;;;;5010529;28;20183;-74
2022/04/06 09:01:47;;;;;;;4.85;3.60;;;13.70;99.90;;;;;;5011896;28;20196;-74
2022/04/06 09:04:13;;;;;;;5.03;3.33;;;13.90;99.90;;;;;;5008406;28;20181;-74
2022/04/06 09:06:44;;;;;;;3.78;3.47;;;13.90;99.90;;;;;;5006866;28;20221;-75
2022/04/06 09:09:10;;;;;;;3.90;3.70;;;13.90;99.90;;;;;;5013007;28;20169;-75
2022/04/06 09:11:43;;;;;;;3.55;3.35;;;13.80;99.90;;;;;;5011503;28;20569;-74
2022/04/06 09:14:09;;;;;;;4.07;3.78;;;13.70;99.90;;;;;;5014471;28;20549;-74
2022/04/06 09:16:34;;;;;;;4.55;4.00;;;13.50;99.90;;;;;;5010854;28;20738;-74
2022/04/06 09:19:11;;;;;;;3.90;3.60;;;13.30;99.90;;;;;;5009516;28;20177;-75
2022/04/06 09:21:48;;;;;;;3.92;3.40;;;13.20;99.90;;;;;;5013165;28;20177;-74
2022/04/06 09:24:17;;;;;;;2.95;2.67;;;13.30;99.90;;;;;;5013215;28;20173;-75
2022/04/06 09:26:43;;;;;;;4.18;3.75;;;13.50;99.90;;;;;;5028796;28;20683;-73
2022/04/06 09:29:15;;;;;;;3.88;3.55;;;13.70;99.90;;;;;;5014084;28;20188;-74
2022/04/06 09:31:41;;;;;;;3.53;3.33;;;13.90;99.90;;;;;;5027399;28;20576;-74
2022/04/06 09:34:11;;;;;;;4.13;3.83;;;14.10;99.90;;;;;;5016083;28;20460;-73
2022/04/06 09:36:38;;;;;;;3.13;2.92;;;14.20;99.90;;;;;;5017217;28;20193;-71
2022/04/06 09:39:05;;;;;;;3.30;3.10;;;14.10;99.90;;;;;;5012955;28;20216;-73
2022/04/06 09:41:32;;;;;;;2.95;2.75;;;14.10;99.90;;;;;;5017754;28;20186;-73
2022/04/06 09:47:38;;;;;;;3.28;3.08;;;14.10;99.90;;;;;;5023977;28;20177;-73
2022/04/06 09:50:26;;;;;;;3.28;3.10;;;14.30;99.90;;;;;;5021888;28;20666;-74
2022/04/06 09:52:54;;;;;;;3.13;2.95;;;14.60;99.90;;;;;;5029125;28;20553;-74
2022/04/06 09:55:21;;;;;;;4.45;2.95;;;14.80;99.90;;;;;;5005300;28;20528;-74
2022/04/06 09:57:55;;;;;;;3.72;3.50;;;14.80;99.90;;;;;;5010714;28;20224;-73
2022/04/06 10:00:25;;;;;;;4.03;3.17;;;14.70;99.90;;;;;;5021383;28;20177;-74
2022/04/06 10:02:54;;;;;;;2.58;2.38;;;14.70;99.90;;;;;;5015004;28;20672;-74
2022/04/06 10:05:23;;;;;;;3.30;2.60;;;14.70;99.90;;;;;;5005346;28;20214;-74
2022/04/06 10:07:51;;;;;;;2.85;2.65;;;14.50;99.90;;;;;;5023165;28;20204;-74
2022/04/06 10:10:18;;;;;;;3.60;3.30;;;14.20;99.90;;;;;;5017150;28;20565;-74
2022/04/06 10:12:44;;;;;;;3.10;2.80;;;14.00;99.90;;;;;;5009925;28;20663;-74
2022/04/06 10:15:10;;;;;;;3.47;2.90;;;13.80;99.90;;;;;;5024239;28;20183;-74
2022/04/06 10:17:36;;;;;;;4.00;3.30;;;14.00;99.90;;;;;;5023213;28;20231;-74
2022/04/06 10:20:21;;;;;;;3.03;2.83;;;14.40;99.90;;;;;;5004143;28;20193;-74
2022/04/06 10:23:02;;;;;;;2.60;2.50;;;14.80;99.90;;;;;;5013630;28;20236;-73
2022/04/06 10:25:44;;;;;;;2.65;2.50;;;15.00;99.90;;;;;;5013055;28;20720;-72
2022/04/06 10:28:11;;;;;;;2.63;2.42;;;15.30;99.90;;;;;;5009837;28;20283;-72
2022/04/06 10:30:38;;;;;;;2.70;2.47;;;15.60;99.90;;;;;;5019497;28;20181;-73
2022/04/06 10:33:21;;;;;;;2.53;2.33;;;15.70;99.90;;;;;;5016531;28;20177;-72
2022/04/06 10:35:47;;;;;;;2.45;2.25;;;15.70;99.90;;;;;;5013958;28;20173;-71
2022/04/06 10:38:16;;;;;;;2.45;2.25;;;15.60;99.90;;;;;;5012973;28;20216;-74
2022/04/06 10:40:45;;;;;;;2.22;2.10;;;15.50;99.90;;;;;;5011418;28;20205;-73
2022/04/06 10:43:40;;;;;;;2.42;1.95;;;15.40;99.90;;;;;;5016982;28;20172;-73
2022/04/06 10:46:10;;;;;;;1.90;1.80;;;15.30;99.90;;;;;;5006212;28;20691;-72
2022/04/06 10:49:09;;;;;;;3.88;2.22;;;15.40;99.90;;;;;;5011755;28;20188;-73
2022/04/06 10:51:41;;;;;;;2.22;2.13;;;15.60;99.90;;;;;;5007631;28;20604;-73
2022/04/06 10:54:12;;;;;;;2.40;2.17;;;15.80;99.90;;;;;;5019406;28;20165;-72
2022/04/06 10:56:50;;;;;;;2.03;1.77;;;16.00;99.90;;;;;;5008354;28;20257;-74
2022/04/06 10:59:17;;;;;;;4.50;2.25;;;16.00;99.90;;;;;;5016323;28;20188;-76
2022/04/06 11:01:45;;;;;;;1.73;1.63;;;16.00;99.90;;;;;;5021990;28;20185;-75
2022/04/06 11:04:20;;;;;;;1.88;1.75;;;16.00;99.90;;;;;;5006495;28;20210;-74
2022/04/06 11:06:59;;;;;;;1.60;1.50;;;16.00;99.90;;;;;;5006609;28;20631;-77
2022/04/06 11:12:19;;;;;;;1.67;1.58;;;16.00;99.90;;;;;;5013425;28;20271;-74
2022/04/06 11:14:50;;;;;;;1.40;1.40;;;15.80;99.90;;;;;;5028016;28;20176;-74
2022/04/06 11:17:42;;;;;;;1.45;1.20;;;15.80;99.90;;;;;;5024275;28;20682;-74
2022/04/06 11:20:14;;;;;;;1.40;1.30;;;15.90;99.90;;;;;;5024345;28;20177;-73
2022/04/06 11:22:44;;;;;;;1.20;1.20;;;15.80;99.90;;;;;;5002379;28;20181;-74
2022/04/06 11:25:17;;;;;;;1.38;1.17;;;15.90;99.90;;;;;;4996716;28;20181;-73
2022/04/06 11:27:45;;;;;;;1.38;1.38;;;16.20;99.90;;;;;;4997485;28;20259;-72
2022/04/06 11:30:14;;;;;;;1.60;1.50;;;16.00;99.90;;;;;;5021672;28;20582;-76
2022/04/06 11:32:43;;;;;;;2.47;1.60;;;15.80;99.90;;;;;;5020046;28;20574;-74
2022/04/06 11:35:13;;;;;;;1.60;1.60;;;16.10;99.90;;;;;;5019990;28;20177;-74
2022/04/06 11:37:41;;;;;;;1.60;1.50;;;16.30;99.90;;;;;;5029394;28;20223;-74
2022/04/06 11:40:08;;;;;;;1.38;1.27;;;16.90;99.90;;;;;;5030701;28;20181;-75
2022/04/06 11:42:33;;;;;;;1.52;1.45;;;17.30;99.90;;;;;;5024735;28;20180;-74
2022/04/06 11:44:59;;;;;;;1.40;1.38;;;17.60;99.90;;;;;;5023159;28;20184;-74
2022/04/06 11:47:36;;;;;;;0.95;0.95;;;17.80;99.90;;;;;;5007643;28;20225;-74
2022/04/06 11:50:10;;;;;;;1.20;1.10;;;17.90;99.90;;;;;;5013009;28;20176;-74
2022/04/06 11:52:40;;;;;;;1.10;1.00;;;18.10;99.90;;;;;;5025646;28;20188;-74
2022/04/06 11:55:07;;;;;;;1.20;1.10;;;18.20;99.90;;;;;;5009809;28;20178;-74
2022/04/06 11:57:45;;;;;;;1.30;1.30;;;18.00;99.90;;;;;;5008769;28;20216;-72
2022/04/06 12:00:13;;;;;;;1.20;1.17;;;17.90;99.90;;;;;;5013819;28;20192;-72
2022/04/06 12:02:56;;;;;;;1.48;1.20;;;18.30;99.90;;;;;;5013513;28;20204;-73
2022/04/06 12:05:25;;;;;;;0.88;0.88;;;19.20;99.90;;;;;;5015692;28;20177;-71
2022/04/06 12:08:06;;;;;;;0.82;0.82;;;19.90;99.90;;;;;;5032097;28;20212;-72
2022/04/06 12:10:32;;;;;;;1.10;1.10;;;21.20;98.20;;;;;;5015382;28;20185;-73
2022/04/06 12:12:58;;;;;;;1.15;1.08;;;21.90;94.60;;;;;;5024695;28;20177;-74
2022/04/06 12:15:23;;;;;;;0.82;0.82;;;22.50;93.20;;;;;;5030132;28;20208;-73
2022/04/06 12:17:49;;;;;;;0.93;0.93;;;23.70;91.10;;;;;;5016611;28;20680;-77
2022/04/06 12:20:41;;;;;;;1.00;1.00;;;24.80;81.10;;;;;;5013651;28;20195;-73
2022/04/06 12:23:10;;;;;;;1.20;1.20;;;25.90;72.90;;;;;;5009372;28;20196;-73
2022/04/06 12:25:37;;;;;;;1.58;1.20;;;25.70;68.20;;;;;;5015197;28;20668;-72
2022/04/06 12:28:26;;;;;;;0.70;0.70;;;25.00;68.10;;;;;;5026930;28;20224;-75
2022/04/06 12:30:54;;;;;;;1.13;1.13;;;24.40;68.40;;;;;;5015746;28;20189;-73
2022/04/06 12:33:45;;;;;;;1.20;1.20;;;23.80;70.00;;;;;;4999373;28;20189;-73
2022/04/06 12:36:19;;;;;;;2.90;1.00;;;23.70;69.70;;;;;;5022326;28;20308;-73
2022/04/06 12:39:04;;;;;;;1.45;1.35;;;23.50;70.70;;;;;;5016007;28;20170;-73
2022/04/06 12:41:32;;;;;;;0.90;0.90;;;22.90;70.50;;;;;;5005366;28;20523;-75
2022/04/06 12:44:00;;;;;;;0.77;0.77;;;22.50;71.80;;;;;;5021080;28;20552;-75
2022/04/06 12:46:38;;;;;;;1.23;1.20;;;21.80;73.70;;;;;;5016196;28;20256;-75
2022/04/06 12:49:28;;;;;;;1.15;1.15;;;21.70;75.40;;;;;;5015831;28;21487;-79
2022/04/06 12:52:14;;;;;;;2.28;1.90;;;22.10;74.00;;;;;;5017488;28;20177;-75
2022/04/06 12:54:49;;;;;;;1.20;1.20;;;22.60;73.20;;;;;;5012070;28;20180;-75
2022/04/06 12:57:30;;;;;;;1.38;1.38;;;23.30;71.50;;;;;;5007863;28;20196;-75
2022/04/06 13:00:18;;;;;;;1.58;1.48;;;24.00;69.70;;;;;;5006584;28;20212;-75
2022/04/06 13:02:48;;;;;;;1.83;1.30;;;24.70;67.10;;;;;;5016992;28;20183;-76